sensor_id;sensor_type;location;lat;lon;timestamp;pressure;altitude;pressure_sealevel;temperature;humidity
19590;BME280;12231;42.782;23.388;2022-09-12T00:00:25;95323.34;;;17.12;100.00
19590;BME280;12231;42.782;23.388;2022-09-12T00:02:52;95321.16;;;17.17;100.00
19590;BME280;12231;42.782;23.388;2022-09-12T00:05:17;95334.84;;;17.00;100.00
19590;BME280;12231;42.782;23.388;2022-09-12T00:07:43;95328.97;;;17.17;100.00
19590;BME280;12231;42.782;23.388;2022-09-12T00:10:08;95332.13;;;17.20;100.00
19590;BME280;12231;42.782;23.388;2022-09-12T00:12:34;95341.31;;;17.05;100.00
19590;BME280;12231;42.782;23.388;2022-09-12T00:14:59;95340.75;;;17.02;100.00
19590;BME280;12231;42.782;23.388;2022-09-12T00:17:25;95345.00;;;17.12;100.00
19590;BME280;12231;42.782;23.388;2022-09-12T00:19:50;95340.31;;;16.97;100.00
19590;BME280;12231;42.782;23.388;2022-09-12T00:22:16;95344.19;;;17.02;100.00
19590;BME280;12231;42.782;23.388;2022-09-12T00:24:41;95331.81;;;16.95;100.00
19590;BME280;12231;42.782;23.388;2022-09-12T00:27:08;95338.34;;;16.61;100.00
19590;BME280;12231;42.782;23.388;2022-09-12T00:29:33;95347.16;;;16.69;100.00
19590;BME280;12231;42.782;23.388;2022-09-12T00:31:59;95344.66;;;16.58;100.00
19590;BME280;12231;42.782;23.388;2022-09-12T00:34:24;95332.44;;;16.49;100.00
19590;BME280;12231;42.782;23.388;2022-09-12T00:36:50;95343.94;;;16.47;100.00
19590;BME280;12231;42.782;23.388;2022-09-12T00:39:15;95341.59;;;16.43;100.00
19590;BME280;12231;42.782;23.388;2022-09-12T00:41:42;95344.81;;;16.26;100.00
19590;BME280;12231;42.782;23.388;2022-09-12T00:46:42;95341.56;;;16.34;100.00
19590;BME280;12231;42.782;23.388;2022-09-12T00:49:32;95344.28;;;16.32;100.00
19590;BME280;12231;42.782;23.388;2022-09-12T00:54:37;95338.28;;;16.41;100.00
19590;BME280;12231;42.782;23.388;2022-09-12T00:57:05;95332.50;;;16.28;100.00
19590;BME280;12231;42.782;23.388;2022-09-12T00:59:40;95339.38;;;16.39;100.00
19590;BME280;12231;42.782;23.388;2022-09-12T01:02:07;95334.38;;;16.47;100.00
19590;BME280;12231;42.782;23.388;2022-09-12T01:04:33;95340.81;;;16.53;100.00
19590;BME280;12231;42.782;23.388;2022-09-12T01:07:02;95341.06;;;16.50;100.00
19590;BME280;12231;42.782;23.388;2022-09-12T01:09:29;95334.25;;;16.49;100.00
19590;BME280;12231;42.782;23.388;2022-09-12T01:11:55;95339.59;;;16.57;100.00
19590;BME280;12231;42.782;23.388;2022-09-12T01:14:21;95339.72;;;16.55;100.00
19590;BME280;12231;42.782;23.388;2022-09-12T01:16:48;95337.25;;;16.54;100.00
19590;BME280;12231;42.782;23.388;2022-09-12T01:28:43;95335.03;;;16.49;100.00
19590;BME280;12231;42.782;23.388;2022-09-12T01:32:11;95335.31;;;16.46;100.00
19590;BME280;12231;42.782;23.388;2022-09-12T01:35:06;95336.84;;;16.49;100.00
19590;BME280;12231;42.782;23.388;2022-09-12T01:37:49;95340.66;;;16.54;100.00
19590;BME280;12231;42.782;23.388;2022-09-12T01:43:00;95329.88;;;16.59;100.00
19590;BME280;12231;42.782;23.388;2022-09-12T01:46:07;95332.91;;;16.73;100.00
19590;BME280;12231;42.782;23.388;2022-09-12T01:48:59;95333.28;;;16.69;100.00
19590;BME280;12231;42.782;23.388;2022-09-12T01:51:57;95337.56;;;16.70;100.00
19590;BME280;12231;42.782;23.388;2022-09-12T01:54:47;95321.81;;;16.81;100.00
19590;BME280;12231;42.782;23.388;2022-09-12T01:57:22;95326.59;;;16.76;100.00
19590;BME280;12231;42.782;23.388;2022-09-12T01:59:55;95332.50;;;16.78;100.00
19590;BME280;12231;42.782;23.388;2022-09-12T02:02:48;95327.59;;;16.84;100.00
19590;BME280;12231;42.782;23.388;2022-09-12T02:05:32;95335.41;;;16.94;100.00
19590;BME280;12231;42.782;23.388;2022-09-12T02:08:04;95337.88;;;17.05;100.00
19590;BME280;12231;42.782;23.388;2022-09-12T02:10:57;95329.34;;;17.03;100.00
19590;BME280;12231;42.782;23.388;2022-09-12T02:13:26;95330.31;;;17.02;100.00
19590;BME280;12231;42.782;23.388;2022-09-12T02:15:58;95330.19;;;17.03;100.00
19590;BME280;12231;42.782;23.388;2022-09-12T02:18:29;95333.22;;;17.08;100.00
19590;BME280;12231;42.782;23.388;2022-09-12T02:20:57;95334.31;;;17.06;100.00
19590;BME280;12231;42.782;23.388;2022-09-12T02:23:27;95338.56;;;17.07;100.00
19590;BME280;12231;42.782;23.388;2022-09-12T02:25:56;95338.22;;;16.62;100.00
19590;BME280;12231;42.782;23.388;2022-09-12T02:28:49;95333.75;;;16.34;100.00
19590;BME280;12231;42.782;23.388;2022-09-12T02:31:36;95339.25;;;16.40;100.00
19590;BME280;12231;42.782;23.388;2022-09-12T02:37:24;95343.31;;;16.33;100.00
19590;BME280;12231;42.782;23.388;2022-09-12T02:39:54;95348.81;;;16.40;100.00
19590;BME280;12231;42.782;23.388;2022-09-12T02:42:21;95345.13;;;16.42;100.00
19590;BME280;12231;42.782;23.388;2022-09-12T02:44:47;95355.91;;;16.28;100.00
19590;BME280;12231;42.782;23.388;2022-09-12T02:47:23;95350.47;;;16.41;100.00
19590;BME280;12231;42.782;23.388;2022-09-12T02:49:52;95344.94;;;16.55;100.00
19590;BME280;12231;42.782;23.388;2022-09-12T02:52:18;95349.16;;;16.56;100.00
19590;BME280;12231;42.782;23.388;2022-09-12T02:54:44;95342.47;;;16.63;100.00
19590;BME280;12231;42.782;23.388;2022-09-12T02:57:17;95341.78;;;16.52;100.00
19590;BME280;12231;42.782;23.388;2022-09-12T02:59:44;95342.34;;;16.55;100.00
19590;BME280;12231;42.782;23.388;2022-09-12T03:02:15;95338.56;;;16.38;100.00
19590;BME280;12231;42.782;23.388;2022-09-12T03:05:07;95341.69;;;16.32;100.00
19590;BME280;12231;42.782;23.388;2022-09-12T03:10:41;95352.72;;;16.46;100.00
19590;BME280;12231;42.782;23.388;2022-09-12T03:15:58;95352.13;;;16.42;100.00
19590;BME280;12231;42.782;23.388;2022-09-12T03:22:18;95354.09;;;16.50;100.00
19590;BME280;12231;42.782;23.388;2022-09-12T03:28:01;95359.72;;;16.55;100.00
19590;BME280;12231;42.782;23.388;2022-09-12T03:30:43;95351.78;;;16.66;100.00
19590;BME280;12231;42.782;23.388;2022-09-12T03:33:11;95354.13;;;16.69;100.00
19590;BME280;12231;42.782;23.388;2022-09-12T03:35:37;95355.91;;;16.68;100.00
19590;BME280;12231;42.782;23.388;2022-09-12T03:38:03;95356.44;;;16.62;100.00
19590;BME280;12231;42.782;23.388;2022-09-12T03:40:29;95357.81;;;16.57;100.00
19590;BME280;12231;42.782;23.388;2022-09-12T03:42:54;95349.84;;;16.49;100.00
19590;BME280;12231;42.782;23.388;2022-09-12T03:45:20;95353.88;;;16.32;100.00
19590;BME280;12231;42.782;23.388;2022-09-12T03:47:45;95354.53;;;16.24;100.00
19590;BME280;12231;42.782;23.388;2022-09-12T03:50:10;95358.53;;;16.38;100.00
19590;BME280;12231;42.782;23.388;2022-09-12T03:52:36;95353.16;;;16.51;100.00
19590;BME280;12231;42.782;23.388;2022-09-12T03:55:02;95354.66;;;16.63;100.00
19590;BME280;12231;42.782;23.388;2022-09-12T03:57:27;95362.75;;;16.60;100.00
19590;BME280;12231;42.782;23.388;2022-09-12T03:59:53;95363.25;;;16.14;100.00
19590;BME280;12231;42.782;23.388;2022-09-12T04:02:18;95372.69;;;15.64;100.00
19590;BME280;12231;42.782;23.388;2022-09-12T04:04:44;95365.59;;;15.46;100.00
19590;BME280;12231;42.782;23.388;2022-09-12T04:07:14;95364.34;;;15.29;100.00
19590;BME280;12231;42.782;23.388;2022-09-12T04:09:40;95362.56;;;14.98;100.00
19590;BME280;12231;42.782;23.388;2022-09-12T04:12:05;95369.03;;;14.83;100.00
19590;BME280;12231;42.782;23.388;2022-09-12T04:14:32;95370.56;;;14.74;100.00
19590;BME280;12231;42.782;23.388;2022-09-12T04:16:57;95379.44;;;14.61;100.00
19590;BME280;12231;42.782;23.388;2022-09-12T04:19:24;95377.31;;;14.55;100.00
19590;BME280;12231;42.782;23.388;2022-09-12T04:21:50;95374.84;;;14.20;100.00
19590;BME280;12231;42.782;23.388;2022-09-12T04:24:15;95370.19;;;14.79;100.00
19590;BME280;12231;42.782;23.388;2022-09-12T04:26:41;95369.59;;;16.00;100.00
19590;BME280;12231;42.782;23.388;2022-09-12T04:29:06;95364.13;;;16.64;100.00
19590;BME280;12231;42.782;23.388;2022-09-12T04:31:31;95367.47;;;16.85;100.00
19590;BME280;12231;42.782;23.388;2022-09-12T04:33:59;95370.50;;;17.37;100.00
19590;BME280;12231;42.782;23.388;2022-09-12T04:36:27;95377.84;;;17.99;100.00
19590;BME280;12231;42.782;23.388;2022-09-12T04:38:53;95386.72;;;18.62;100.00
19590;BME280;12231;42.782;23.388;2022-09-12T04:41:20;95388.53;;;18.79;94.21
19590;BME280;12231;42.782;23.388;2022-09-12T04:43:46;95393.63;;;19.43;90.04
19590;BME280;12231;42.782;23.388;2022-09-12T04:46:14;95385.44;;;19.81;87.54
19590;BME280;12231;42.782;23.388;2022-09-12T04:48:42;95385.25;;;20.17;85.79
19590;BME280;12231;42.782;23.388;2022-09-12T04:51:12;95387.66;;;20.70;83.97
19590;BME280;12231;42.782;23.388;2022-09-12T04:53:38;95388.31;;;20.80;81.06
19590;BME280;12231;42.782;23.388;2022-09-12T04:56:05;95393.84;;;21.03;79.60
19590;BME280;12231;42.782;23.388;2022-09-12T04:58:31;95388.53;;;21.68;79.33
19590;BME280;12231;42.782;23.388;2022-09-12T05:01:17;95385.09;;;22.16;76.62
19590;BME280;12231;42.782;23.388;2022-09-12T05:03:44;95386.59;;;21.79;77.24
19590;BME280;12231;42.782;23.388;2022-09-12T05:06:13;95384.16;;;21.77;77.71
19590;BME280;12231;42.782;23.388;2022-09-12T05:08:39;95372.72;;;22.49;76.75
19590;BME280;12231;42.782;23.388;2022-09-12T05:11:09;95379.75;;;23.34;73.84
19590;BME280;12231;42.782;23.388;2022-09-12T05:13:35;95377.59;;;24.05;71.65
19590;BME280;12231;42.782;23.388;2022-09-12T05:16:02;95378.94;;;24.67;70.93
19590;BME280;12231;42.782;23.388;2022-09-12T05:18:31;95371.91;;;25.39;67.05
19590;BME280;12231;42.782;23.388;2022-09-12T05:20:58;95366.75;;;26.15;63.57
19590;BME280;12231;42.782;23.388;2022-09-12T05:23:25;95365.88;;;27.04;60.57
19590;BME280;12231;42.782;23.388;2022-09-12T05:25:51;95373.41;;;27.54;57.12
19590;BME280;12231;42.782;23.388;2022-09-12T05:28:18;95368.31;;;27.53;56.57
19590;BME280;12231;42.782;23.388;2022-09-12T05:30:45;95373.75;;;26.84;57.25
19590;BME280;12231;42.782;23.388;2022-09-12T05:33:10;95375.59;;;27.31;55.90
19590;BME280;12231;42.782;23.388;2022-09-12T05:35:36;95378.19;;;27.25;56.12
19590;BME280;12231;42.782;23.388;2022-09-12T05:38:06;95376.94;;;26.73;57.53
19590;BME280;12231;42.782;23.388;2022-09-12T05:40:32;95380.72;;;26.64;57.83
19590;BME280;12231;42.782;23.388;2022-09-12T05:42:58;95379.44;;;26.81;58.79
19590;BME280;12231;42.782;23.388;2022-09-12T05:45:23;95387.88;;;26.98;57.88
19590;BME280;12231;42.782;23.388;2022-09-12T05:47:49;95376.09;;;27.74;56.74
19590;BME280;12231;42.782;23.388;2022-09-12T05:50:14;95371.25;;;28.56;54.08
19590;BME280;12231;42.782;23.388;2022-09-12T05:52:40;95371.44;;;29.24;53.06
19590;BME280;12231;42.782;23.388;2022-09-12T05:55:06;95370.75;;;28.91;51.37
19590;BME280;12231;42.782;23.388;2022-09-12T05:57:32;95358.28;;;29.80;50.28
19590;BME280;12231;42.782;23.388;2022-09-12T05:59:57;95359.88;;;29.57;49.58
19590;BME280;12231;42.782;23.388;2022-09-12T06:02:23;95355.25;;;29.77;49.06
19590;BME280;12231;42.782;23.388;2022-09-12T06:04:48;95349.38;;;29.62;48.65
19590;BME280;12231;42.782;23.388;2022-09-12T06:07:14;95340.41;;;30.18;47.54
19590;BME280;12231;42.782;23.388;2022-09-12T06:09:39;95346.88;;;29.73;47.83
19590;BME280;12231;42.782;23.388;2022-09-12T06:12:05;95357.28;;;28.86;51.01
19590;BME280;12231;42.782;23.388;2022-09-12T06:14:31;95347.44;;;29.82;48.69
19590;BME280;12231;42.782;23.388;2022-09-12T06:16:57;95347.53;;;30.49;47.54
19590;BME280;12231;42.782;23.388;2022-09-12T06:19:23;95356.75;;;29.66;47.76
19590;BME280;12231;42.782;23.388;2022-09-12T06:21:49;95366.63;;;30.15;47.05
19590;BME280;12231;42.782;23.388;2022-09-12T06:24:19;95366.66;;;31.36;45.33
19590;BME280;12231;42.782;23.388;2022-09-12T06:26:45;95360.88;;;31.69;43.83
19590;BME280;12231;42.782;23.388;2022-09-12T06:29:12;95367.22;;;30.23;45.74
19590;BME280;12231;42.782;23.388;2022-09-12T06:31:39;95362.53;;;29.88;46.83
19590;BME280;12231;42.782;23.388;2022-09-12T06:34:09;95367.78;;;28.03;51.22
19590;BME280;12231;42.782;23.388;2022-09-12T06:36:40;95368.13;;;28.85;50.00
19590;BME280;12231;42.782;23.388;2022-09-12T06:39:11;95366.66;;;29.84;48.08
19590;BME280;12231;42.782;23.388;2022-09-12T06:41:37;95370.28;;;31.06;45.15
19590;BME280;12231;42.782;23.388;2022-09-12T06:44:03;95370.72;;;29.04;49.68
19590;BME280;12231;42.782;23.388;2022-09-12T06:46:29;95375.75;;;28.55;49.84
19590;BME280;12231;42.782;23.388;2022-09-12T06:48:56;95378.63;;;26.87;54.41
19590;BME280;12231;42.782;23.388;2022-09-12T06:51:21;95368.06;;;27.41;54.46
19590;BME280;12231;42.782;23.388;2022-09-12T06:53:49;95374.22;;;27.55;53.05
19590;BME280;12231;42.782;23.388;2022-09-12T06:56:17;95381.22;;;25.98;58.13
19590;BME280;12231;42.782;23.388;2022-09-12T06:58:47;95371.44;;;26.41;56.78
19590;BME280;12231;42.782;23.388;2022-09-12T07:01:25;95371.28;;;28.49;51.84
19590;BME280;12231;42.782;23.388;2022-09-12T07:03:56;95376.22;;;29.53;48.22
19590;BME280;12231;42.782;23.388;2022-09-12T07:06:24;95383.25;;;27.20;54.05
19590;BME280;12231;42.782;23.388;2022-09-12T07:08:54;95372.06;;;28.10;52.19
19590;BME280;12231;42.782;23.388;2022-09-12T07:11:21;95375.75;;;28.55;51.67
19590;BME280;12231;42.782;23.388;2022-09-12T07:13:52;95376.06;;;27.54;51.94
19590;BME280;12231;42.782;23.388;2022-09-12T07:16:17;95371.53;;;29.87;47.79
19590;BME280;12231;42.782;23.388;2022-09-12T07:18:43;95369.56;;;30.07;45.93
19590;BME280;12231;42.782;23.388;2022-09-12T07:21:12;95370.91;;;31.85;43.52
19590;BME280;12231;42.782;23.388;2022-09-12T07:23:37;95375.94;;;32.57;41.60
19590;BME280;12231;42.782;23.388;2022-09-12T07:26:04;95369.78;;;32.91;39.27
19590;BME280;12231;42.782;23.388;2022-09-12T07:28:31;95374.09;;;32.05;40.23
19590;BME280;12231;42.782;23.388;2022-09-12T07:30:57;95371.47;;;32.28;39.94
19590;BME280;12231;42.782;23.388;2022-09-12T07:33:26;95383.56;;;29.58;44.42
19590;BME280;12231;42.782;23.388;2022-09-12T07:35:52;95377.34;;;28.69;47.78
19590;BME280;12231;42.782;23.388;2022-09-12T07:38:19;95364.78;;;30.40;43.42
19590;BME280;12231;42.782;23.388;2022-09-12T07:40:45;95370.28;;;31.24;44.54
19590;BME280;12231;42.782;23.388;2022-09-12T07:43:10;95375.31;;;29.35;45.64
19590;BME280;12231;42.782;23.388;2022-09-12T07:45:36;95377.00;;;27.27;49.39
19590;BME280;12231;42.782;23.388;2022-09-12T07:48:02;95379.22;;;26.49;52.77
19590;BME280;12231;42.782;23.388;2022-09-12T07:50:27;95380.03;;;26.56;51.11
19590;BME280;12231;42.782;23.388;2022-09-12T07:52:53;95382.50;;;26.57;51.88
19590;BME280;12231;42.782;23.388;2022-09-12T07:55:20;95389.41;;;26.24;53.08
19590;BME280;12231;42.782;23.388;2022-09-12T07:57:48;95379.41;;;26.47;52.67
19590;BME280;12231;42.782;23.388;2022-09-12T08:00:15;95385.06;;;25.75;54.69
19590;BME280;12231;42.782;23.388;2022-09-12T08:02:41;95386.53;;;25.77;55.76
19590;BME280;12231;42.782;23.388;2022-09-12T08:05:07;95387.56;;;24.76;56.81
19590;BME280;12231;42.782;23.388;2022-09-12T08:07:32;95393.66;;;24.76;56.86
19590;BME280;12231;42.782;23.388;2022-09-12T08:09:58;95390.91;;;24.41;58.31
19590;BME280;12231;42.782;23.388;2022-09-12T08:12:26;95387.94;;;24.73;57.51
19590;BME280;12231;42.782;23.388;2022-09-12T08:14:51;95386.78;;;24.75;57.62
19590;BME280;12231;42.782;23.388;2022-09-12T08:17:16;95384.53;;;24.64;58.63
19590;BME280;12231;42.782;23.388;2022-09-12T08:19:42;95375.22;;;25.26;56.34
19590;BME280;12231;42.782;23.388;2022-09-12T08:22:09;95382.66;;;25.37;55.59
19590;BME280;12231;42.782;23.388;2022-09-12T08:24:35;95368.63;;;25.51;56.30
19590;BME280;12231;42.782;23.388;2022-09-12T08:27:01;95373.69;;;23.93;59.39
19590;BME280;12231;42.782;23.388;2022-09-12T08:29:26;95376.34;;;24.45;58.63
19590;BME280;12231;42.782;23.388;2022-09-12T08:31:51;95376.53;;;23.69;60.25
19590;BME280;12231;42.782;23.388;2022-09-12T08:34:17;95371.88;;;22.95;61.98
19590;BME280;12231;42.782;23.388;2022-09-12T08:36:43;95371.06;;;23.25;61.52
19590;BME280;12231;42.782;23.388;2022-09-12T08:39:12;95359.91;;;24.43;58.32
19590;BME280;12231;42.782;23.388;2022-09-12T08:41:43;95357.28;;;25.22;56.53
19590;BME280;12231;42.782;23.388;2022-09-12T08:49:31;95357.69;;;25.19;55.05
19590;BME280;12231;42.782;23.388;2022-09-12T08:52:06;95352.78;;;25.16;55.98
19590;BME280;12231;42.782;23.388;2022-09-12T08:54:36;95358.34;;;24.19;59.34
19590;BME280;12231;42.782;23.388;2022-09-12T08:57:04;95360.22;;;22.43;64.27
19590;BME280;12231;42.782;23.388;2022-09-12T08:59:36;95346.63;;;22.86;62.75
19590;BME280;12231;42.782;23.388;2022-09-12T09:02:07;95344.97;;;22.85;63.61
19590;BME280;12231;42.782;23.388;2022-09-12T09:04:49;95346.94;;;22.91;61.73
19590;BME280;12231;42.782;23.388;2022-09-12T09:10:16;95341.41;;;25.15;58.82
19590;BME280;12231;42.782;23.388;2022-09-12T09:18:30;95341.66;;;24.56;56.41
19590;BME280;12231;42.782;23.388;2022-09-12T09:21:34;95327.34;;;23.69;57.84
19590;BME280;12231;42.782;23.388;2022-09-12T09:24:11;95325.13;;;23.95;58.27
19590;BME280;12231;42.782;23.388;2022-09-12T09:29:18;95309.06;;;25.70;53.61
19590;BME280;12231;42.782;23.388;2022-09-12T09:31:50;95300.03;;;26.41;50.52
19590;BME280;12231;42.782;23.388;2022-09-12T09:34:21;95311.53;;;27.08;47.67
19590;BME280;12231;42.782;23.388;2022-09-12T09:42:14;95306.63;;;25.47;51.01
19590;BME280;12231;42.782;23.388;2022-09-12T09:44:43;95303.78;;;25.49;52.38
19590;BME280;12231;42.782;23.388;2022-09-12T09:47:11;95300.03;;;26.07;51.99
19590;BME280;12231;42.782;23.388;2022-09-12T09:49:37;95294.97;;;27.73;46.02
19590;BME280;12231;42.782;23.388;2022-09-12T09:52:05;95297.53;;;27.21;48.30
19590;BME280;12231;42.782;23.388;2022-09-12T09:54:38;95294.41;;;26.98;49.37
19590;BME280;12231;42.782;23.388;2022-09-12T10:05:53;95293.44;;;23.52;59.14
19590;BME280;12231;42.782;23.388;2022-09-12T10:08:21;95288.13;;;24.11;56.51
19590;BME280;12231;42.782;23.388;2022-09-12T10:10:55;95283.25;;;24.88;53.75
19590;BME280;12231;42.782;23.388;2022-09-12T10:13:26;95291.00;;;25.10;53.24
19590;BME280;12231;42.782;23.388;2022-09-12T10:16:01;95281.56;;;26.13;51.46
19590;BME280;12231;42.782;23.388;2022-09-12T10:18:40;95285.34;;;26.72;49.69
19590;BME280;12231;42.782;23.388;2022-09-12T10:21:34;95291.91;;;25.59;50.14
19590;BME280;12231;42.782;23.388;2022-09-12T10:24:27;95292.91;;;23.56;54.80
19590;BME280;12231;42.782;23.388;2022-09-12T10:32:10;95286.44;;;23.44;58.29
19590;BME280;12231;42.782;23.388;2022-09-12T10:34:41;95281.34;;;23.80;55.73
19590;BME280;12231;42.782;23.388;2022-09-12T10:37:16;95291.13;;;24.23;54.20
19590;BME280;12231;42.782;23.388;2022-09-12T10:39:49;95292.28;;;24.20;52.10
19590;BME280;12231;42.782;23.388;2022-09-12T10:42:50;95294.59;;;24.88;52.00
19590;BME280;12231;42.782;23.388;2022-09-12T10:45:26;95279.59;;;25.45;50.74
19590;BME280;12231;42.782;23.388;2022-09-12T10:47:55;95281.66;;;24.14;52.24
19590;BME280;12231;42.782;23.388;2022-09-12T10:50:27;95290.63;;;23.90;53.97
19590;BME280;12231;42.782;23.388;2022-09-12T10:52:53;95300.78;;;23.93;55.98
19590;BME280;12231;42.782;23.388;2022-09-12T10:55:27;95298.25;;;23.85;55.59
19590;BME280;12231;42.782;23.388;2022-09-12T10:58:14;95296.59;;;23.25;57.29
19590;BME280;12231;42.782;23.388;2022-09-12T11:00:46;95293.84;;;23.41;57.27
19590;BME280;12231;42.782;23.388;2022-09-12T11:03:21;95312.34;;;24.07;56.26
19590;BME280;12231;42.782;23.388;2022-09-12T11:05:52;95307.28;;;23.68;55.58
19590;BME280;12231;42.782;23.388;2022-09-12T11:08:25;95294.84;;;23.40;56.72
19590;BME280;12231;42.782;23.388;2022-09-12T11:19:49;95302.69;;;22.64;58.22
19590;BME280;12231;42.782;23.388;2022-09-12T11:22:39;95292.69;;;22.90;56.66
19590;BME280;12231;42.782;23.388;2022-09-12T11:25:22;95296.06;;;23.52;54.80
19590;BME280;12231;42.782;23.388;2022-09-12T11:30:54;95297.16;;;23.94;51.92
19590;BME280;12231;42.782;23.388;2022-09-12T11:33:37;95295.44;;;23.87;53.02
19590;BME280;12231;42.782;23.388;2022-09-12T11:36:14;95307.09;;;24.65;53.30
19590;BME280;12231;42.782;23.388;2022-09-12T11:38:50;95304.56;;;24.43;53.75
19590;BME280;12231;42.782;23.388;2022-09-12T11:41:22;95287.28;;;24.69;53.20
19590;BME280;12231;42.782;23.388;2022-09-12T11:48:58;95290.41;;;24.94;49.60
19590;BME280;12231;42.782;23.388;2022-09-12T11:51:34;95281.84;;;25.48;48.92
19590;BME280;12231;42.782;23.388;2022-09-12T11:54:24;95285.66;;;25.04;49.08
19590;BME280;12231;42.782;23.388;2022-09-12T11:57:10;95280.41;;;25.46;48.46
19590;BME280;12231;42.782;23.388;2022-09-12T11:59:58;95291.75;;;25.04;47.89
19590;BME280;12231;42.782;23.388;2022-09-12T12:02:28;95286.28;;;25.06;49.05
19590;BME280;12231;42.782;23.388;2022-09-12T12:05:48;95293.94;;;24.51;49.17
19590;BME280;12231;42.782;23.388;2022-09-12T12:08:05;95286.47;;;24.39;49.55
19590;BME280;12231;42.782;23.388;2022-09-12T12:10:37;95277.38;;;25.28;49.35
19590;BME280;12231;42.782;23.388;2022-09-12T12:13:16;95281.69;;;25.50;49.41
19590;BME280;12231;42.782;23.388;2022-09-12T12:15:51;95289.31;;;25.24;48.40
19590;BME280;12231;42.782;23.388;2022-09-12T12:18:25;95274.50;;;25.44;47.92
19590;BME280;12231;42.782;23.388;2022-09-12T12:20:53;95273.63;;;25.58;47.60
19590;BME280;12231;42.782;23.388;2022-09-12T12:23:30;95265.16;;;25.69;47.66
19590;BME280;12231;42.782;23.388;2022-09-12T12:25:59;95271.75;;;25.80;47.44
19590;BME280;12231;42.782;23.388;2022-09-12T12:31:16;95271.34;;;24.77;48.45
19590;BME280;12231;42.782;23.388;2022-09-12T12:36:09;95269.28;;;24.73;49.99
19590;BME280;12231;42.782;23.388;2022-09-12T12:38:37;95269.50;;;25.13;48.90
19590;BME280;12231;42.782;23.388;2022-09-12T12:43:42;95264.09;;;25.21;49.62
19590;BME280;12231;42.782;23.388;2022-09-12T12:46:09;95277.47;;;24.99;49.05
19590;BME280;12231;42.782;23.388;2022-09-12T12:48:45;95277.63;;;24.76;49.63
19590;BME280;12231;42.782;23.388;2022-09-12T12:51:54;95296.28;;;24.46;51.77
19590;BME280;12231;42.782;23.388;2022-09-12T12:57:16;95288.13;;;24.41;51.37
19590;BME280;12231;42.782;23.388;2022-09-12T13:00:04;95293.19;;;24.42;50.63
19590;BME280;12231;42.782;23.388;2022-09-12T13:02:34;95274.94;;;24.26;49.15
19590;BME280;12231;42.782;23.388;2022-09-12T13:05:03;95275.22;;;24.16;50.48
19590;BME280;12231;42.782;23.388;2022-09-12T13:07:36;95285.50;;;24.11;51.29
19590;BME280;12231;42.782;23.388;2022-09-12T13:10:05;95280.44;;;23.50;53.67
19590;BME280;12231;42.782;23.388;2022-09-12T13:12:44;95288.31;;;24.10;52.04
19590;BME280;12231;42.782;23.388;2022-09-12T13:18:09;95289.09;;;23.59;55.28
19590;BME280;12231;42.782;23.388;2022-09-12T13:21:13;95283.28;;;24.00;53.72
19590;BME280;12231;42.782;23.388;2022-09-12T13:23:38;95285.53;;;23.74;51.92
19590;BME280;12231;42.782;23.388;2022-09-12T13:26:10;95280.41;;;23.36;51.93
19590;BME280;12231;42.782;23.388;2022-09-12T13:28:36;95274.78;;;23.39;51.38
19590;BME280;12231;42.782;23.388;2022-09-12T13:31:11;95281.41;;;23.35;53.03
19590;BME280;12231;42.782;23.388;2022-09-12T13:33:48;95281.16;;;23.81;51.11
19590;BME280;12231;42.782;23.388;2022-09-12T13:39:27;95271.59;;;24.17;51.10
19590;BME280;12231;42.782;23.388;2022-09-12T13:44:50;95272.84;;;24.07;51.93
19590;BME280;12231;42.782;23.388;2022-09-12T13:47:24;95271.72;;;23.72;52.54
19590;BME280;12231;42.782;23.388;2022-09-12T13:49:52;95281.31;;;22.75;56.95
19590;BME280;12231;42.782;23.388;2022-09-12T13:52:21;95275.44;;;22.65;56.42
19590;BME280;12231;42.782;23.388;2022-09-12T13:54:52;95277.03;;;22.74;57.10
19590;BME280;12231;42.782;23.388;2022-09-12T13:57:45;95269.34;;;22.95;57.04
19590;BME280;12231;42.782;23.388;2022-09-12T14:00:19;95270.88;;;23.35;56.23
19590;BME280;12231;42.782;23.388;2022-09-12T14:02:47;95271.09;;;23.48;56.52
19590;BME280;12231;42.782;23.388;2022-09-12T14:05:18;95281.03;;;23.15;56.09
19590;BME280;12231;42.782;23.388;2022-09-12T14:07:54;95271.81;;;23.42;55.33
19590;BME280;12231;42.782;23.388;2022-09-12T14:10:29;95271.22;;;23.54;55.30
19590;BME280;12231;42.782;23.388;2022-09-12T14:12:57;95268.13;;;23.51;55.95
19590;BME280;12231;42.782;23.388;2022-09-12T14:15:29;95268.00;;;23.44;55.62
19590;BME280;12231;42.782;23.388;2022-09-12T14:18:01;95263.38;;;23.24;55.41
19590;BME280;12231;42.782;23.388;2022-09-12T14:20:34;95260.09;;;23.22;55.29
19590;BME280;12231;42.782;23.388;2022-09-12T14:23:05;95270.25;;;22.79;55.76
19590;BME280;12231;42.782;23.388;2022-09-12T14:25:38;95276.81;;;22.45;56.51
19590;BME280;12231;42.782;23.388;2022-09-12T14:28:09;95283.63;;;22.70;56.84
19590;BME280;12231;42.782;23.388;2022-09-12T14:30:36;95276.97;;;22.82;56.12
19590;BME280;12231;42.782;23.388;2022-09-12T14:33:17;95285.38;;;22.39;58.82
19590;BME280;12231;42.782;23.388;2022-09-12T14:35:51;95283.03;;;22.60;57.25
19590;BME280;12231;42.782;23.388;2022-09-12T14:38:30;95283.44;;;22.33;59.32
19590;BME280;12231;42.782;23.388;2022-09-12T14:41:02;95290.16;;;22.35;57.96
19590;BME280;12231;42.782;23.388;2022-09-12T14:43:32;95295.72;;;21.45;59.73
19590;BME280;12231;42.782;23.388;2022-09-12T14:46:04;95299.66;;;21.82;59.50
19590;BME280;12231;42.782;23.388;2022-09-12T14:48:34;95302.63;;;21.46;61.17
19590;BME280;12231;42.782;23.388;2022-09-12T14:51:00;95297.38;;;21.38;60.99
19590;BME280;12231;42.782;23.388;2022-09-12T14:53:34;95301.41;;;20.93;62.75